sensor_id;sensor_type;location;lat;lon;timestamp;P1;durP1;ratioP1;P2;durP2;ratioP2
13432;SDS011;6789;47.678;9.158;2023-12-20T00:01:46;4.63;;;3.20;;
13432;SDS011;6789;47.678;9.158;2023-12-20T00:06:38;4.13;;;2.97;;
13432;SDS011;6789;47.678;9.158;2023-12-20T00:11:29;4.60;;;3.07;;
13432;SDS011;6789;47.678;9.158;2023-12-20T00:16:21;3.73;;;2.87;;
13432;SDS011;6789;47.678;9.158;2023-12-20T00:21:13;3.93;;;2.40;;
13432;SDS011;6789;47.678;9.158;2023-12-20T00:26:05;4.30;;;2.73;;
13432;SDS011;6789;47.678;9.158;2023-12-20T00:30:56;4.23;;;3.00;;
13432;SDS011;6789;47.678;9.158;2023-12-20T00:35:48;4.40;;;3.17;;
13432;SDS011;6789;47.678;9.158;2023-12-20T00:40:41;4.87;;;2.97;;
13432;SDS011;6789;47.678;9.158;2023-12-20T00:45:33;4.97;;;3.30;;
13432;SDS011;6789;47.678;9.158;2023-12-20T00:50:25;4.10;;;2.87;;
13432;SDS011;6789;47.678;9.158;2023-12-20T00:55:20;5.83;;;3.33;;
13432;SDS011;6789;47.678;9.158;2023-12-20T01:00:12;4.57;;;2.97;;
13432;SDS011;6789;47.678;9.158;2023-12-20T01:05:05;4.60;;;3.23;;
13432;SDS011;6789;47.678;9.158;2023-12-20T01:09:58;4.40;;;3.33;;
13432;SDS011;6789;47.678;9.158;2023-12-20T01:14:50;4.90;;;3.50;;
13432;SDS011;6789;47.678;9.158;2023-12-20T01:19:42;5.13;;;3.57;;
13432;SDS011;6789;47.678;9.158;2023-12-20T01:24:34;4.60;;;3.60;;
13432;SDS011;6789;47.678;9.158;2023-12-20T01:29:26;4.87;;;3.50;;
13432;SDS011;6789;47.678;9.158;2023-12-20T01:34:18;4.53;;;2.97;;
13432;SDS011;6789;47.678;9.158;2023-12-20T01:39:10;4.20;;;3.27;;
13432;SDS011;6789;47.678;9.158;2023-12-20T01:44:15;4.67;;;3.20;;
13432;SDS011;6789;47.678;9.158;2023-12-20T01:49:07;5.43;;;3.30;;
13432;SDS011;6789;47.678;9.158;2023-12-20T01:54:00;5.90;;;3.67;;
13432;SDS011;6789;47.678;9.158;2023-12-20T01:58:52;6.00;;;3.60;;
13432;SDS011;6789;47.678;9.158;2023-12-20T02:03:46;7.30;;;4.43;;
13432;SDS011;6789;47.678;9.158;2023-12-20T02:08:38;5.57;;;4.13;;
13432;SDS011;6789;47.678;9.158;2023-12-20T02:13:30;5.97;;;3.93;;
13432;SDS011;6789;47.678;9.158;2023-12-20T02:18:23;7.53;;;4.80;;
13432;SDS011;6789;47.678;9.158;2023-12-20T02:23:15;7.10;;;4.87;;
13432;SDS011;6789;47.678;9.158;2023-12-20T02:28:07;8.87;;;5.13;;
13432;SDS011;6789;47.678;9.158;2023-12-20T02:32:59;7.70;;;5.23;;
13432;SDS011;6789;47.678;9.158;2023-12-20T02:37:52;9.77;;;5.30;;
13432;SDS011;6789;47.678;9.158;2023-12-20T02:42:44;7.77;;;4.73;;
13432;SDS011;6789;47.678;9.158;2023-12-20T02:47:36;6.97;;;4.97;;
13432;SDS011;6789;47.678;9.158;2023-12-20T02:52:28;7.87;;;4.43;;
13432;SDS011;6789;47.678;9.158;2023-12-20T02:57:20;9.30;;;5.03;;
13432;SDS011;6789;47.678;9.158;2023-12-20T03:02:12;7.37;;;4.90;;
13432;SDS011;6789;47.678;9.158;2023-12-20T03:07:03;8.00;;;5.23;;
13432;SDS011;6789;47.678;9.158;2023-12-20T03:11:55;5.77;;;4.17;;
13432;SDS011;6789;47.678;9.158;2023-12-20T03:16:49;7.43;;;4.60;;
13432;SDS011;6789;47.678;9.158;2023-12-20T03:21:41;6.73;;;4.77;;
13432;SDS011;6789;47.678;9.158;2023-12-20T03:26:33;8.23;;;4.43;;
13432;SDS011;6789;47.678;9.158;2023-12-20T03:31:24;10.00;;;5.10;;
13432;SDS011;6789;47.678;9.158;2023-12-20T03:36:16;12.83;;;6.30;;
13432;SDS011;6789;47.678;9.158;2023-12-20T03:41:08;7.63;;;5.17;;
13432;SDS011;6789;47.678;9.158;2023-12-20T03:46:00;10.87;;;5.37;;
13432;SDS011;6789;47.678;9.158;2023-12-20T03:50:52;8.97;;;5.23;;
13432;SDS011;6789;47.678;9.158;2023-12-20T03:55:44;6.40;;;4.73;;
13432;SDS011;6789;47.678;9.158;2023-12-20T04:00:35;12.43;;;6.30;;
13432;SDS011;6789;47.678;9.158;2023-12-20T04:05:27;7.73;;;5.63;;
13432;SDS011;6789;47.678;9.158;2023-12-20T04:10:19;7.13;;;5.40;;
13432;SDS011;6789;47.678;9.158;2023-12-20T04:15:26;10.90;;;6.40;;
13432;SDS011;6789;47.678;9.158;2023-12-20T04:20:18;10.57;;;6.57;;
13432;SDS011;6789;47.678;9.158;2023-12-20T04:25:09;9.13;;;6.07;;
13432;SDS011;6789;47.678;9.158;2023-12-20T04:30:01;8.47;;;5.67;;
13432;SDS011;6789;47.678;9.158;2023-12-20T04:34:54;11.17;;;6.27;;
13432;SDS011;6789;47.678;9.158;2023-12-20T04:39:46;8.93;;;6.37;;
13432;SDS011;6789;47.678;9.158;2023-12-20T04:44:38;10.77;;;6.90;;
13432;SDS011;6789;47.678;9.158;2023-12-20T04:49:29;8.73;;;6.27;;
13432;SDS011;6789;47.678;9.158;2023-12-20T04:54:21;9.60;;;6.50;;
13432;SDS011;6789;47.678;9.158;2023-12-20T04:59:13;8.60;;;6.60;;
13432;SDS011;6789;47.678;9.158;2023-12-20T05:04:05;9.33;;;6.40;;
13432;SDS011;6789;47.678;9.158;2023-12-20T05:08:57;10.13;;;6.83;;
13432;SDS011;6789;47.678;9.158;2023-12-20T05:13:48;10.77;;;7.00;;
13432;SDS011;6789;47.678;9.158;2023-12-20T05:18:41;8.90;;;6.83;;
13432;SDS011;6789;47.678;9.158;2023-12-20T05:23:32;10.03;;;6.73;;
13432;SDS011;6789;47.678;9.158;2023-12-20T05:28:24;10.00;;;6.70;;
13432;SDS011;6789;47.678;9.158;2023-12-20T05:33:16;8.33;;;6.17;;
13432;SDS011;6789;47.678;9.158;2023-12-20T05:38:08;9.30;;;6.87;;
13432;SDS011;6789;47.678;9.158;2023-12-20T05:43:00;12.73;;;6.83;;
13432;SDS011;6789;47.678;9.158;2023-12-20T05:47:52;10.73;;;6.83;;
13432;SDS011;6789;47.678;9.158;2023-12-20T05:52:44;8.63;;;6.43;;
13432;SDS011;6789;47.678;9.158;2023-12-20T05:57:35;7.63;;;5.97;;
13432;SDS011;6789;47.678;9.158;2023-12-20T06:02:27;8.50;;;6.00;;
13432;SDS011;6789;47.678;9.158;2023-12-20T06:07:19;8.73;;;5.90;;
13432;SDS011;6789;47.678;9.158;2023-12-20T06:12:11;8.87;;;6.30;;
13432;SDS011;6789;47.678;9.158;2023-12-20T06:17:03;8.20;;;6.10;;
13432;SDS011;6789;47.678;9.158;2023-12-20T06:21:55;8.70;;;6.40;;
13432;SDS011;6789;47.678;9.158;2023-12-20T06:26:47;9.70;;;6.47;;
13432;SDS011;6789;47.678;9.158;2023-12-20T06:31:39;13.43;;;7.57;;
13432;SDS011;6789;47.678;9.158;2023-12-20T06:36:31;10.67;;;7.53;;
13432;SDS011;6789;47.678;9.158;2023-12-20T06:41:22;9.97;;;6.60;;
13432;SDS011;6789;47.678;9.158;2023-12-20T06:46:15;10.27;;;7.63;;
13432;SDS011;6789;47.678;9.158;2023-12-20T06:51:10;8.17;;;6.40;;
13432;SDS011;6789;47.678;9.158;2023-12-20T06:56:07;10.53;;;7.23;;
13432;SDS011;6789;47.678;9.158;2023-12-20T07:01:01;9.77;;;6.93;;
13432;SDS011;6789;47.678;9.158;2023-12-20T07:05:53;9.70;;;7.10;;
13432;SDS011;6789;47.678;9.158;2023-12-20T07:10:45;8.93;;;6.47;;
13432;SDS011;6789;47.678;9.158;2023-12-20T07:15:36;7.93;;;6.67;;
13432;SDS011;6789;47.678;9.158;2023-12-20T07:20:36;8.87;;;6.13;;
13432;SDS011;6789;47.678;9.158;2023-12-20T07:25:28;8.97;;;6.47;;
13432;SDS011;6789;47.678;9.158;2023-12-20T07:30:21;8.50;;;6.63;;
13432;SDS011;6789;47.678;9.158;2023-12-20T07:35:13;8.40;;;5.60;;
13432;SDS011;6789;47.678;9.158;2023-12-20T07:40:07;9.47;;;5.90;;
13432;SDS011;6789;47.678;9.158;2023-12-20T07:44:59;7.67;;;5.33;;
13432;SDS011;6789;47.678;9.158;2023-12-20T07:49:51;11.43;;;6.20;;
13432;SDS011;6789;47.678;9.158;2023-12-20T07:54:43;5.77;;;4.63;;
13432;SDS011;6789;47.678;9.158;2023-12-20T07:59:36;6.47;;;4.47;;
13432;SDS011;6789;47.678;9.158;2023-12-20T08:04:28;5.83;;;4.43;;
13432;SDS011;6789;47.678;9.158;2023-12-20T08:09:20;5.50;;;3.77;;
13432;SDS011;6789;47.678;9.158;2023-12-20T08:14:12;4.80;;;4.07;;
13432;SDS011;6789;47.678;9.158;2023-12-20T08:19:04;4.77;;;4.13;;
13432;SDS011;6789;47.678;9.158;2023-12-20T08:23:56;6.77;;;4.47;;
13432;SDS011;6789;47.678;9.158;2023-12-20T08:28:48;5.90;;;4.70;;
13432;SDS011;6789;47.678;9.158;2023-12-20T08:33:41;6.17;;;4.57;;
13432;SDS011;6789;47.678;9.158;2023-12-20T08:38:34;8.27;;;5.53;;
13432;SDS011;6789;47.678;9.158;2023-12-20T08:43:26;6.27;;;4.47;;
13432;SDS011;6789;47.678;9.158;2023-12-20T08:48:18;5.53;;;4.30;;
13432;SDS011;6789;47.678;9.158;2023-12-20T08:53:10;5.17;;;3.90;;
13432;SDS011;6789;47.678;9.158;2023-12-20T08:58:02;4.97;;;3.80;;
13432;SDS011;6789;47.678;9.158;2023-12-20T09:02:54;5.30;;;3.33;;
13432;SDS011;6789;47.678;9.158;2023-12-20T09:07:46;2.80;;;2.33;;
13432;SDS011;6789;47.678;9.158;2023-12-20T09:12:38;2.60;;;2.20;;
13432;SDS011;6789;47.678;9.158;2023-12-20T09:17:32;3.27;;;2.50;;
13432;SDS011;6789;47.678;9.158;2023-12-20T09:22:24;5.60;;;2.87;;
13432;SDS011;6789;47.678;9.158;2023-12-20T09:27:16;2.83;;;2.20;;
13432;SDS011;6789;47.678;9.158;2023-12-20T09:32:08;3.67;;;2.20;;
13432;SDS011;6789;47.678;9.158;2023-12-20T09:36:59;2.23;;;1.90;;
13432;SDS011;6789;47.678;9.158;2023-12-20T09:41:57;2.60;;;1.80;;
13432;SDS011;6789;47.678;9.158;2023-12-20T09:46:55;2.20;;;1.80;;
13432;SDS011;6789;47.678;9.158;2023-12-20T09:51:48;1.93;;;1.73;;
13432;SDS011;6789;47.678;9.158;2023-12-20T09:56:43;2.63;;;1.90;;
13432;SDS011;6789;47.678;9.158;2023-12-20T10:01:39;1.50;;;1.40;;
13432;SDS011;6789;47.678;9.158;2023-12-20T10:06:32;2.30;;;1.63;;
13432;SDS011;6789;47.678;9.158;2023-12-20T10:11:24;3.23;;;1.80;;
13432;SDS011;6789;47.678;9.158;2023-12-20T10:16:16;3.23;;;1.80;;
13432;SDS011;6789;47.678;9.158;2023-12-20T10:21:08;2.33;;;1.70;;
13432;SDS011;6789;47.678;9.158;2023-12-20T10:26:01;2.13;;;1.57;;
13432;SDS011;6789;47.678;9.158;2023-12-20T10:30:54;2.13;;;1.70;;
13432;SDS011;6789;47.678;9.158;2023-12-20T10:35:49;4.57;;;2.70;;
13432;SDS011;6789;47.678;9.158;2023-12-20T10:40:42;4.87;;;1.80;;
13432;SDS011;6789;47.678;9.158;2023-12-20T10:45:36;2.00;;;1.40;;
13432;SDS011;6789;47.678;9.158;2023-12-20T10:50:29;2.83;;;1.40;;
13432;SDS011;6789;47.678;9.158;2023-12-20T10:55:23;4.00;;;2.00;;
13432;SDS011;6789;47.678;9.158;2023-12-20T11:00:16;1.73;;;1.50;;
13432;SDS011;6789;47.678;9.158;2023-12-20T11:10:31;2.73;;;1.40;;
13432;SDS011;6789;47.678;9.158;2023-12-20T11:15:48;2.23;;;1.80;;
13432;SDS011;6789;47.678;9.158;2023-12-20T11:20:41;1.60;;;1.50;;
13432;SDS011;6789;47.678;9.158;2023-12-20T11:25:50;1.47;;;1.27;;
13432;SDS011;6789;47.678;9.158;2023-12-20T11:30:49;1.60;;;0.80;;
13432;SDS011;6789;47.678;9.158;2023-12-20T11:35:45;1.53;;;0.57;;
13432;SDS011;6789;47.678;9.158;2023-12-20T11:40:43;0.50;;;0.43;;
13432;SDS011;6789;47.678;9.158;2023-12-20T11:45:35;0.60;;;0.60;;
13432;SDS011;6789;47.678;9.158;2023-12-20T11:50:28;3.20;;;1.00;;
13432;SDS011;6789;47.678;9.158;2023-12-20T11:55:37;0.93;;;0.87;;
13432;SDS011;6789;47.678;9.158;2023-12-20T12:00:29;0.70;;;0.70;;
13432;SDS011;6789;47.678;9.158;2023-12-20T12:05:21;0.70;;;0.70;;
13432;SDS011;6789;47.678;9.158;2023-12-20T12:10:13;4.00;;;1.20;;
13432;SDS011;6789;47.678;9.158;2023-12-20T12:15:05;1.07;;;0.77;;
13432;SDS011;6789;47.678;9.158;2023-12-20T12:20:06;2.93;;;0.90;;
13432;SDS011;6789;47.678;9.158;2023-12-20T12:36:10;4.03;;;1.40;;
13432;SDS011;6789;47.678;9.158;2023-12-20T12:41:04;0.73;;;0.70;;
13432;SDS011;6789;47.678;9.158;2023-12-20T12:45:56;0.60;;;0.60;;
13432;SDS011;6789;47.678;9.158;2023-12-20T12:50:48;1.00;;;0.60;;
13432;SDS011;6789;47.678;9.158;2023-12-20T12:55:44;1.53;;;0.97;;
13432;SDS011;6789;47.678;9.158;2023-12-20T13:00:36;1.00;;;0.90;;
13432;SDS011;6789;47.678;9.158;2023-12-20T13:05:28;0.70;;;0.70;;
13432;SDS011;6789;47.678;9.158;2023-12-20T13:10:36;2.17;;;0.83;;
13432;SDS011;6789;47.678;9.158;2023-12-20T13:15:28;0.90;;;0.90;;
13432;SDS011;6789;47.678;9.158;2023-12-20T13:20:21;2.83;;;1.17;;
13432;SDS011;6789;47.678;9.158;2023-12-20T13:25:13;2.13;;;1.07;;
13432;SDS011;6789;47.678;9.158;2023-12-20T13:30:05;1.43;;;0.97;;
13432;SDS011;6789;47.678;9.158;2023-12-20T13:34:58;1.67;;;1.00;;
13432;SDS011;6789;47.678;9.158;2023-12-20T13:39:50;1.23;;;0.77;;
13432;SDS011;6789;47.678;9.158;2023-12-20T13:44:45;0.50;;;0.50;;
13432;SDS011;6789;47.678;9.158;2023-12-20T13:49:37;0.83;;;0.80;;
13432;SDS011;6789;47.678;9.158;2023-12-20T13:54:30;1.77;;;1.00;;
13432;SDS011;6789;47.678;9.158;2023-12-20T13:59:22;0.70;;;0.70;;
13432;SDS011;6789;47.678;9.158;2023-12-20T14:04:13;1.47;;;1.00;;
13432;SDS011;6789;47.678;9.158;2023-12-20T14:09:25;1.63;;;0.90;;
13432;SDS011;6789;47.678;9.158;2023-12-20T14:14:17;2.23;;;1.30;;
13432;SDS011;6789;47.678;9.158;2023-12-20T14:19:10;1.20;;;0.90;;
13432;SDS011;6789;47.678;9.158;2023-12-20T14:24:03;2.20;;;1.27;;
13432;SDS011;6789;47.678;9.158;2023-12-20T14:28:55;2.60;;;1.20;;
13432;SDS011;6789;47.678;9.158;2023-12-20T14:33:47;2.00;;;1.20;;
13432;SDS011;6789;47.678;9.158;2023-12-20T14:38:40;1.83;;;0.90;;
13432;SDS011;6789;47.678;9.158;2023-12-20T14:49:08;2.00;;;1.00;;
13432;SDS011;6789;47.678;9.158;2023-12-20T14:54:00;2.43;;;0.90;;
13432;SDS011;6789;47.678;9.158;2023-12-20T14:58:52;1.53;;;0.80;;
13432;SDS011;6789;47.678;9.158;2023-12-20T15:03:44;3.17;;;0.90;;
13432;SDS011;6789;47.678;9.158;2023-12-20T15:08:36;2.13;;;1.10;;
13432;SDS011;6789;47.678;9.158;2023-12-20T15:13:28;2.20;;;1.13;;
13432;SDS011;6789;47.678;9.158;2023-12-20T15:18:20;1.83;;;1.10;;
13432;SDS011;6789;47.678;9.158;2023-12-20T15:23:12;1.40;;;1.20;;
13432;SDS011;6789;47.678;9.158;2023-12-20T15:28:04;3.00;;;1.53;;
13432;SDS011;6789;47.678;9.158;2023-12-20T15:32:56;5.07;;;1.97;;
13432;SDS011;6789;47.678;9.158;2023-12-20T15:37:49;3.27;;;2.33;;
13432;SDS011;6789;47.678;9.158;2023-12-20T15:42:41;4.40;;;2.00;;
13432;SDS011;6789;47.678;9.158;2023-12-20T15:47:36;4.80;;;2.97;;
13432;SDS011;6789;47.678;9.158;2023-12-20T15:52:28;3.37;;;2.17;;
13432;SDS011;6789;47.678;9.158;2023-12-20T15:57:20;6.77;;;2.27;;
13432;SDS011;6789;47.678;9.158;2023-12-20T16:02:15;3.87;;;2.07;;
13432;SDS011;6789;47.678;9.158;2023-12-20T16:07:08;3.97;;;2.33;;
13432;SDS011;6789;47.678;9.158;2023-12-20T16:12:00;3.77;;;2.27;;
13432;SDS011;6789;47.678;9.158;2023-12-20T16:16:52;8.10;;;3.17;;
13432;SDS011;6789;47.678;9.158;2023-12-20T16:21:43;2.80;;;2.50;;
13432;SDS011;6789;47.678;9.158;2023-12-20T16:26:37;5.57;;;1.83;;
13432;SDS011;6789;47.678;9.158;2023-12-20T16:32:02;5.53;;;1.57;;
13432;SDS011;6789;47.678;9.158;2023-12-20T16:36:55;4.37;;;1.67;;
13432;SDS011;6789;47.678;9.158;2023-12-20T16:41:47;7.27;;;2.43;;
13432;SDS011;6789;47.678;9.158;2023-12-20T16:46:39;2.90;;;1.30;;
13432;SDS011;6789;47.678;9.158;2023-12-20T16:51:32;3.43;;;1.53;;
13432;SDS011;6789;47.678;9.158;2023-12-20T16:56:25;3.37;;;1.30;;
13432;SDS011;6789;47.678;9.158;2023-12-20T17:01:16;3.83;;;1.90;;
13432;SDS011;6789;47.678;9.158;2023-12-20T17:06:09;5.97;;;1.90;;
13432;SDS011;6789;47.678;9.158;2023-12-20T17:11:01;6.33;;;1.63;;
13432;SDS011;6789;47.678;9.158;2023-12-20T17:15:53;3.47;;;1.57;;
13432;SDS011;6789;47.678;9.158;2023-12-20T17:20:45;4.60;;;1.53;;
13432;SDS011;6789;47.678;9.158;2023-12-20T17:25:37;2.00;;;1.13;;
13432;SDS011;6789;47.678;9.158;2023-12-20T17:30:31;3.77;;;1.00;;
13432;SDS011;6789;47.678;9.158;2023-12-20T17:35:23;4.20;;;1.23;;
13432;SDS011;6789;47.678;9.158;2023-12-20T17:40:15;1.73;;;1.10;;
13432;SDS011;6789;47.678;9.158;2023-12-20T17:45:06;4.73;;;1.37;;
13432;SDS011;6789;47.678;9.158;2023-12-20T17:49:58;7.23;;;1.60;;
13432;SDS011;6789;47.678;9.158;2023-12-20T17:54:50;3.20;;;1.30;;
13432;SDS011;6789;47.678;9.158;2023-12-20T17:59:42;3.67;;;1.37;;
13432;SDS011;6789;47.678;9.158;2023-12-20T18:04:34;6.63;;;1.23;;
13432;SDS011;6789;47.678;9.158;2023-12-20T18:09:26;2.83;;;1.30;;
13432;SDS011;6789;47.678;9.158;2023-12-20T18:14:17;4.37;;;1.50;;
13432;SDS011;6789;47.678;9.158;2023-12-20T18:19:09;5.07;;;1.80;;
13432;SDS011;6789;47.678;9.158;2023-12-20T18:24:02;4.83;;;2.03;;
13432;SDS011;6789;47.678;9.158;2023-12-20T18:29:02;5.30;;;1.50;;
13432;SDS011;6789;47.678;9.158;2023-12-20T18:33:53;4.27;;;1.73;;
13432;SDS011;6789;47.678;9.158;2023-12-20T18:38:45;5.97;;;1.63;;
13432;SDS011;6789;47.678;9.158;2023-12-20T18:43:37;3.17;;;1.47;;
13432;SDS011;6789;47.678;9.158;2023-12-20T18:48:29;3.90;;;1.37;;
13432;SDS011;6789;47.678;9.158;2023-12-20T18:53:21;10.30;;;1.90;;
13432;SDS011;6789;47.678;9.158;2023-12-20T18:58:13;5.83;;;1.80;;
13432;SDS011;6789;47.678;9.158;2023-12-20T19:03:05;2.97;;;1.50;;
13432;SDS011;6789;47.678;9.158;2023-12-20T19:07:58;3.73;;;1.87;;
13432;SDS011;6789;47.678;9.158;2023-12-20T19:12:50;3.43;;;1.33;;
13432;SDS011;6789;47.678;9.158;2023-12-20T19:17:42;4.83;;;1.60;;
13432;SDS011;6789;47.678;9.158;2023-12-20T19:22:34;3.73;;;1.50;;
13432;SDS011;6789;47.678;9.158;2023-12-20T19:27:26;2.73;;;1.27;;
13432;SDS011;6789;47.678;9.158;2023-12-20T19:32:18;7.27;;;1.90;;
13432;SDS011;6789;47.678;9.158;2023-12-20T19:37:09;5.43;;;1.17;;
13432;SDS011;6789;47.678;9.158;2023-12-20T19:42:01;2.53;;;1.50;;
13432;SDS011;6789;47.678;9.158;2023-12-20T19:46:53;3.10;;;0.93;;
13432;SDS011;6789;47.678;9.158;2023-12-20T19:51:45;3.10;;;0.93;;
13432;SDS011;6789;47.678;9.158;2023-12-20T19:56:37;3.73;;;1.20;;
13432;SDS011;6789;47.678;9.158;2023-12-20T20:01:28;2.13;;;1.17;;
13432;SDS011;6789;47.678;9.158;2023-12-20T20:06:20;4.60;;;0.90;;
13432;SDS011;6789;47.678;9.158;2023-12-20T20:11:12;2.53;;;1.00;;
13432;SDS011;6789;47.678;9.158;2023-12-20T20:16:20;4.60;;;1.00;;
13432;SDS011;6789;47.678;9.158;2023-12-20T20:21:12;5.13;;;1.60;;
13432;SDS011;6789;47.678;9.158;2023-12-20T20:26:03;2.07;;;1.10;;
13432;SDS011;6789;47.678;9.158;2023-12-20T20:30:55;2.87;;;1.27;;
13432;SDS011;6789;47.678;9.158;2023-12-20T20:35:47;3.30;;;1.37;;
13432;SDS011;6789;47.678;9.158;2023-12-20T20:40:39;2.93;;;1.40;;
13432;SDS011;6789;47.678;9.158;2023-12-20T20:45:31;2.50;;;1.10;;
13432;SDS011;6789;47.678;9.158;2023-12-20T20:50:23;2.53;;;1.30;;
13432;SDS011;6789;47.678;9.158;2023-12-20T20:55:15;6.67;;;1.47;;
13432;SDS011;6789;47.678;9.158;2023-12-20T21:00:08;3.90;;;1.10;;
13432;SDS011;6789;47.678;9.158;2023-12-20T21:05:00;3.57;;;1.20;;
13432;SDS011;6789;47.678;9.158;2023-12-20T21:09:52;2.60;;;1.20;;
13432;SDS011;6789;47.678;9.158;2023-12-20T21:14:45;2.37;;;1.10;;
13432;SDS011;6789;47.678;9.158;2023-12-20T21:19:37;3.17;;;1.20;;
13432;SDS011;6789;47.678;9.158;2023-12-20T21:24:29;3.73;;;1.17;;
13432;SDS011;6789;47.678;9.158;2023-12-20T21:29:21;3.80;;;1.40;;
13432;SDS011;6789;47.678;9.158;2023-12-20T21:34:13;3.33;;;1.33;;
13432;SDS011;6789;47.678;9.158;2023-12-20T21:39:04;3.63;;;1.50;;
13432;SDS011;6789;47.678;9.158;2023-12-20T21:43:59;3.23;;;1.70;;
13432;SDS011;6789;47.678;9.158;2023-12-20T21:48:51;2.00;;;1.30;;
13432;SDS011;6789;47.678;9.158;2023-12-20T21:53:43;2.37;;;1.23;;
13432;SDS011;6789;47.678;9.158;2023-12-20T21:58:35;4.00;;;1.40;;
13432;SDS011;6789;47.678;9.158;2023-12-20T22:03:32;3.90;;;1.17;;
13432;SDS011;6789;47.678;9.158;2023-12-20T22:08:27;3.20;;;1.40;;
13432;SDS011;6789;47.678;9.158;2023-12-20T22:13:18;3.03;;;1.40;;
13432;SDS011;6789;47.678;9.158;2023-12-20T22:18:10;1.90;;;1.10;;
13432;SDS011;6789;47.678;9.158;2023-12-20T22:23:02;4.93;;;1.33;;
13432;SDS011;6789;47.678;9.158;2023-12-20T22:27:54;4.40;;;1.37;;
13432;SDS011;6789;47.678;9.158;2023-12-20T22:32:46;4.60;;;1.30;;
13432;SDS011;6789;47.678;9.158;2023-12-20T22:37:38;3.40;;;1.20;;
13432;SDS011;6789;47.678;9.158;2023-12-20T22:42:29;3.37;;;1.07;;
13432;SDS011;6789;47.678;9.158;2023-12-20T22:47:22;2.87;;;1.20;;
13432;SDS011;6789;47.678;9.158;2023-12-20T22:52:14;3.40;;;1.50;;
13432;SDS011;6789;47.678;9.158;2023-12-20T22:57:07;4.70;;;1.20;;
13432;SDS011;6789;47.678;9.158;2023-12-20T23:01:59;2.97;;;1.43;;
13432;SDS011;6789;47.678;9.158;2023-12-20T23:07:05;5.03;;;1.20;;
13432;SDS011;6789;47.678;9.158;2023-12-20T23:12:12;1.23;;;0.80;;
13432;SDS011;6789;47.678;9.158;2023-12-20T23:17:18;2.00;;;1.10;;
13432;SDS011;6789;47.678;9.158;2023-12-20T23:22:09;4.40;;;1.50;;
13432;SDS011;6789;47.678;9.158;2023-12-20T23:27:01;2.87;;;1.10;;
13432;SDS011;6789;47.678;9.158;2023-12-20T23:31:53;2.90;;;1.20;;
13432;SDS011;6789;47.678;9.158;2023-12-20T23:36:45;3.50;;;0.97;;
13432;SDS011;6789;47.678;9.158;2023-12-20T23:41:37;1.30;;;0.80;;
13432;SDS011;6789;47.678;9.158;2023-12-20T23:46:29;2.77;;;1.07;;
13432;SDS011;6789;47.678;9.158;2023-12-20T23:51:21;3.40;;;1.30;;
13432;SDS011;6789;47.678;9.158;2023-12-20T23:56:12;1.43;;;1.10;;
